Прилуки

Карта отелей и гостиниц, располагающихся рядом с аэропортом Прилуки :

Прилуки Ярославская область 57° 21' 40.4388" N, 38° 1' 44.6916" E
Код аэродрома ИКАО
ZF83
Код аэродрома RU
ЗФ83
Координаты
N57.36123° E038.02908°
Превышение над уровнем моря
120
Основная полоса
14/32
Курс магнитный
141,5/321,5
Длина основной ВПП
842
Ширина основной ВПП
25
Покрытие основной ВПП
Вода
Освещение ВПП
Нет
Тип: 
Аэродром
Класс аэродрома: 
Принадлежность: 
АОН
Статус: 
Действующий
Сайт: 
E-mail аэродрома: 
Страна: 
Россия
Регион: 
Ярославская область
Город: 
Дополнительная информация: 
Владелец ПП: нет данных. Посадка с МК=327° на грунт на высокий берег (как на авианосец). Особенности гидродрома: практическое отсутствие бокового ветра, т.к. с двух сторон залив защищен высоким берегом и лесом, высота волны не более 15-20 см. Глубина залива по центру 5-6 м. Слип около ангара шириной 3 м.


Найти трансфер

С помощью этой формы Вы можете найти трансфер из аэропорта Прилуки в город, аэропорт или вокзал:

Погода в аэропортах:

Авиационная погода в Екатеринбурге

Регион: 
Погода METAR: 
USSS 212300Z 30007MPS 9999 -SHRA OVC007CB 03/02 Q0991 R26R/290335 NOSIG RMK QFE723/0964
Время наблюдения
2022-05-21T23:00:00Z
Температура C
3.0
Точка росы
2.0
Направление ветра
300
Скорость ветра (узлы)
14
Метео видимость
6.21
Облачность
OVC
Нижняя граница облачности (футы)
700
Явления погоды
-SHRA
Условия полета
IFR
Аэропорт подробнее: 
OVC – сплошная облачность;
-SHRA - слабый ливневой дождь;

Авиационная погода в Вадсё

Регион: 
Погода METAR: 
ENVD 212250Z AUTO 03011KT 9999 -RA SCT019/// OVC033/// 03/01 Q1013
Время наблюдения
2022-05-21T22:50:00Z
Температура C
3.0
Точка росы
1.0
Направление ветра
30
Скорость ветра (узлы)
11
Метео видимость
6.21
Облачность
SCT
OVC
Нижняя граница облачности (футы)
1900
3300
Явления погоды
-RA
Условия полета
VFR
SCT – разбросанная отдельная облачность; OVC – сплошная облачность;
-RA - слабый дождь;

Авиационная погода в Ботсфьорде

Регион: 
Погода METAR: 
ENBS 212250Z AUTO 17007KT 9999 -RA ///042/// 02/01 Q1013
Время наблюдения
2022-05-21T22:50:00Z
Температура C
2.0
Точка росы
1.0
Направление ветра
170
Скорость ветра (узлы)
7
Метео видимость
6.21
Облачность
Нижняя граница облачности (футы)
Явления погоды
-RA
Условия полета
-RA - слабый дождь;

Авиационная погода в Сыктывкаре

Регион: 
Погода METAR: 
UUYY 212300Z 02004MPS 8000 -SHSN SCT008 BKN018CB M00/M01 Q1004 R36/29//51 NOSIG RMK QFE744/0992
Время наблюдения
2022-05-21T23:00:00Z
Температура C
0.0
Точка росы
-1.0
Направление ветра
20
Скорость ветра (узлы)
8
Метео видимость
4.97
Облачность
SCT
BKN
Нижняя граница облачности (футы)
800
1800
Явления погоды
-SHSN
Условия полета
MVFR
Аэропорт подробнее: 
SCT – разбросанная отдельная облачность; BKN – значительная (рассеянная, разорванная) облачность;
-SHSN - слабый ливневой снег;